createdAt,value
2018-11-11T00:08:34.170Z,60.70
2018-11-11T00:18:37.444Z,61.50
2018-11-11T00:28:40.854Z,63.53
2018-11-11T00:38:43.987Z,63.87
2018-11-11T00:48:47.272Z,68.10
2018-11-11T00:58:50.509Z,64.77
2018-11-11T01:08:53.748Z,71.90
2018-11-11T01:18:57.300Z,69.90
2018-11-11T01:29:00.539Z,73.57
2018-11-11T01:39:04.273Z,69.50
2018-11-11T01:49:07.979Z,70.47
2018-11-11T01:59:11.517Z,71.97
2018-11-11T02:09:14.753Z,71.43
2018-11-11T02:19:18.031Z,73.77
2018-11-11T02:29:21.272Z,69.30
2018-11-11T02:39:24.499Z,80.07
2018-11-11T02:49:27.812Z,77.03
2018-11-11T02:59:31.061Z,72.27
2018-11-11T03:09:34.415Z,79.53
2018-11-11T03:19:37.668Z,72.17
2018-11-11T03:29:41.047Z,71.27
2018-11-11T03:39:44.293Z,71.00
2018-11-11T03:49:47.528Z,68.27
2018-11-11T03:59:50.818Z,59.20
2018-11-11T04:09:54.052Z,62.93
2018-11-11T04:19:57.311Z,63.73
2018-11-11T04:30:00.569Z,61.13
2018-11-11T04:40:04.133Z,58.63
2018-11-11T04:50:08.922Z,61.40
2018-11-11T05:00:13.297Z,56.83
2018-11-11T05:10:16.535Z,57.27
2018-11-11T05:20:19.792Z,56.83
2018-11-11T05:30:23.064Z,51.50
2018-11-11T05:40:26.316Z,53.60
2018-11-11T05:50:29.556Z,50.57
2018-11-11T06:00:33.132Z,50.93
2018-11-11T06:10:36.375Z,50.63
2018-11-11T06:20:39.600Z,49.00
2018-11-11T06:30:43.144Z,46.37
2018-11-11T06:40:46.391Z,51.17
2018-11-11T06:50:49.632Z,54.63
2018-11-11T07:00:52.876Z,52.83
2018-11-11T07:10:56.191Z,51.00
2018-11-11T07:20:59.428Z,56.27
2018-11-11T07:31:02.681Z,49.60
2018-11-11T07:41:06.032Z,52.27
2018-11-11T07:51:09.788Z,52.53
2018-11-11T08:01:13.230Z,49.43
2018-11-11T08:11:28.109Z,66.07
2018-11-11T08:21:31.585Z,58.57
2018-11-11T08:31:34.963Z,51.70
2018-11-11T08:41:39.985Z,51.60
2018-11-11T08:51:43.448Z,47.80
2018-11-11T09:01:46.835Z,44.50
2018-11-11T09:11:50.120Z,33.13
2018-11-11T09:21:53.496Z,28.27
2018-11-11T09:31:57.444Z,25.00
2018-11-11T09:42:00.769Z,25.83
2018-11-11T09:52:04.136Z,0.80
2018-11-11T10:02:07.481Z,22.23
2018-11-11T10:12:17.968Z,21.97
2018-11-11T10:23:01.530Z,19.53
2018-11-11T10:33:27.805Z,21.33
2018-11-11T10:44:02.508Z,18.53
2018-11-11T10:54:06.479Z,13.80
2018-11-11T11:04:09.712Z,14.87
2018-11-11T11:14:13.865Z,11.80
2018-11-11T11:24:17.112Z,5.07
2018-11-11T11:34:20.492Z,9.43
2018-11-11T11:44:23.829Z,4.70
2018-11-11T11:54:27.188Z,3.20
2018-11-11T12:04:30.520Z,4.03
2018-11-11T12:14:33.864Z,5.63
2018-11-11T12:24:37.488Z,10.13
2018-11-11T12:34:40.840Z,4.83
2018-11-11T12:44:44.316Z,3.80
2018-11-11T12:54:47.522Z,4.03
2018-11-11T13:04:50.950Z,4.60
2018-11-11T13:20:32.435Z,3.10
2018-11-11T13:30:35.776Z,4.70
2018-11-11T13:40:39.153Z,3.73
2018-11-11T13:50:42.460Z,4.93
2018-11-11T14:00:45.839Z,6.33
2018-11-11T14:10:49.202Z,5.80
2018-11-11T14:20:52.512Z,4.67
2018-11-11T14:30:55.836Z,4.47
2018-11-11T14:40:59.188Z,4.83
2018-11-11T14:51:02.556Z,2.40
2018-11-11T15:01:06.592Z,5.50
2018-11-11T15:11:10.613Z,4.30
2018-11-11T15:21:13.844Z,4.80
2018-11-11T15:31:17.213Z,4.03
2018-11-11T15:41:20.341Z,6.10
2018-11-11T15:51:23.575Z,3.67
2018-11-11T16:01:26.785Z,4.70
2018-11-11T16:11:30.071Z,4.23
2018-11-11T16:21:33.309Z,7.70
2018-11-11T16:31:36.616Z,7.83
2018-11-11T16:41:40.145Z,5.07
2018-11-11T16:51:43.408Z,4.90
2018-11-11T17:01:46.636Z,5.40
2018-11-11T17:11:49.893Z,5.43
2018-11-11T17:21:53.289Z,5.43
2018-11-11T17:31:56.375Z,7.33
2018-11-11T17:41:59.612Z,6.23
2018-11-11T17:52:02.852Z,6.93
2018-11-11T18:02:06.429Z,8.00
2018-11-11T18:12:10.259Z,10.20
2018-11-11T18:22:13.520Z,10.60
2018-11-11T18:32:16.741Z,11.77
2018-11-11T18:42:20.038Z,12.77
2018-11-11T18:52:23.450Z,15.57
2018-11-11T19:02:26.672Z,16.20
2018-11-11T19:12:30.161Z,13.37
2018-11-11T19:22:33.424Z,18.07
2018-11-11T19:32:37.304Z,20.63
2018-11-11T19:42:41.238Z,16.93
2018-11-11T19:52:46.118Z,20.93
2018-11-11T20:02:50.350Z,18.73
2018-11-11T20:12:53.876Z,19.97
2018-11-11T20:22:57.192Z,21.03
2018-11-11T20:33:00.546Z,25.10
2018-11-11T20:43:03.811Z,25.30
2018-11-11T20:53:07.373Z,23.27
2018-11-11T21:03:10.668Z,23.37
2018-11-11T21:13:13.925Z,20.70
2018-11-11T21:23:17.156Z,20.53
2018-11-11T21:33:20.401Z,19.03
2018-11-11T21:43:23.645Z,20.27
2018-11-11T21:53:30.908Z,21.10
2018-11-11T22:03:34.325Z,20.63
2018-11-11T22:13:37.672Z,20.47
2018-11-11T22:23:41.004Z,21.20
2018-11-11T22:33:44.333Z,20.57
2018-11-11T22:43:47.692Z,20.00
2018-11-11T22:53:51.052Z,23.17
2018-11-11T23:03:54.716Z,19.00
2018-11-11T23:13:58.116Z,16.43
2018-11-11T23:24:01.393Z,18.70
2018-11-11T23:34:04.733Z,16.20
2018-11-11T23:44:08.979Z,18.43
2018-11-11T23:54:12.344Z,15.20
